^^
Datos históricos de la estación: Murcia-Puente Tocinos
Diario Informe para Diciembre 4, 2019 Unidades:  Ingés    Métrico   Ambas
Diario Semanal Mensual Anual
  Máxima: Mínima: Promedio:
Temperatura: 56.8 °F 51.3 °F 54.5 °F
Punto de rocio: 48.4 °F 44.8 °F 46.9 °F
Humedad: 84% 67.5% 76%
Velocidad viento: 15.9mph 0mph 8.1mph
Racha viento: 30mph - -
Viento- - OSO
Presión: 29.8 in 29.6 in -
Precipitación: 0.12 in    
 
 
Tabla de datos para Diciembre 4, 2019
Hora Temperatura Punto de rocio Presión Viento Velocidad viento Racha viento Humedad Intensidad lluvia(por hora) Nubes
00:04 51.6 °F 45 °F 29.8 in OSO 7.5 mph 15 mph 78% 0 in
00:09 51.6 °F 45 °F 29.8 in OSO 7.4 mph 15 mph 78% 0 in
00:14 51.6 °F 45.3 °F 29.8 in Oeste 7.4 mph 15 mph 78.9% 0 in
00:19 51.4 °F 45.1 °F 29.8 in Oeste 7.4 mph 13.8 mph 78.9% 0 in
00:24 51.4 °F 44.8 °F 29.8 in OSO 7.4 mph 14 mph 78.1% 0 in
00:29 51.6 °F 45 °F 29.8 in OSO 7.4 mph 13 mph 78.2% 0 in
00:34 51.6 °F 45.3 °F 29.8 in OSO 7.1 mph 13 mph 79% 0 in
00:39 51.6 °F 45.1 °F 29.8 in OSO 6.9 mph 13.7 mph 78.5% 0 in
00:44 51.6 °F 45.1 °F 29.8 in OSO 6.2 mph 14 mph 78.4% 0 in
00:49 51.6 °F 45 °F 29.8 in OSO 5.9 mph 11.5 mph 78% 0 in
00:54 51.4 °F 45 °F 29.8 in OSO 5.9 mph 14 mph 78% 0 in
00:59 51.4 °F 45 °F 29.8 in OSO 5.9 mph 14 mph 78.6% 0 in
01:04 51.4 °F 45 °F 29.8 in OSO 6.2 mph 20.7 mph 78.5% 0 in
01:09 51.4 °F 45 °F 29.8 in OSO 6.2 mph 21 mph 78.6% 0 in
01:14 51.6 °F 45.1 °F 29.7 in OSO 7.6 mph 14 mph 78.4% 0 in
01:19 51.6 °F 45 °F 29.7 in OSO 8.1 mph 15 mph 78% 0 in
01:24 51.6 °F 45.1 °F 29.7 in OSO 8.1 mph 15 mph 78% 0 in
01:29 51.8 °F 45.1 °F 29.7 in OSO 8.1 mph 15 mph 78% 0 in
01:34 52 °F 45.1 °F 29.7 in OSO 8.1 mph 15.2 mph 77.7% 0 in
01:39 52 °F 45 °F 29.7 in OSO 8.1 mph 17.5 mph 77% 0 in
01:44 52 °F 45 °F 29.7 in OSO 8.6 mph 17.3 mph 77% 0 in
01:49 52.2 °F 45.1 °F 29.7 in OSO 8.7 mph 14 mph 77% 0 in
01:54 52.2 °F 45.1 °F 29.7 in OSO 7.9 mph 18.1 mph 77% 0 in
01:59 52.2 °F 45.1 °F 29.7 in OSO 7.6 mph 19.6 mph 77% 0 in
02:04 52 °F 45 °F 29.7 in OSO 9.6 mph 20 mph 77% 0 in
02:09 52 °F 45 °F 29.7 in OSO 10.2 mph 17.5 mph 77% 0 in
02:14 52 °F 45 °F 29.7 in OSO 8.9 mph 18.4 mph 77% 0 in
02:19 52 °F 45 °F 29.7 in OSO 8.5 mph 18 mph 77% 0 in
02:24 52 °F 45.3 °F 29.7 in OSO 8.6 mph 20.7 mph 77.8% 0.01 in
02:29 51.8 °F 45.3 °F 29.7 in OSO 8.7 mph 21 mph 78.3% 0.01 in
02:34 51.6 °F 45.3 °F 29.7 in OSO 9.4 mph 17 mph 79.2% 0.01 in
02:39 51.4 °F 45.7 °F 29.7 in OSO 9.7 mph 17.5 mph 80.5% 0.01 in
02:44 51.3 °F 45.9 °F 29.7 in OSO 8.8 mph 18.5 mph 81.6% 0.01 in
02:49 51.3 °F 46 °F 29.7 in OSO 8.5 mph 19 mph 82% 0.01 in
02:54 51.3 °F 46.2 °F 29.7 in OSO 10.1 mph 18.4 mph 82.7% 0.01 in
02:59 51.3 °F 46.4 °F 29.7 in OSO 10.7 mph 20.7 mph 83% 0.01 in
03:04 51.4 °F 46.4 °F 29.7 in SO 9.9 mph 21 mph 83% 0.01 in
03:09 51.4 °F 46.4 °F 29.7 in SO 9.7 mph 17.3 mph 83.3% 0.01 in
03:14 51.3 °F 46.6 °F 29.7 in SO 8 mph 17 mph 84% 0.01 in
03:19 51.3 °F 46.8 °F 29.7 in SO 7.4 mph 16.8 mph 84% 0.01 in
03:24 51.4 °F 46.8 °F 29.7 in SO 6.5 mph 17.3 mph 84% 0.01 in
03:29 51.4 °F 46.8 °F 29.7 in SO 6.2 mph 11.2 mph 84% 0 in
03:34 51.4 °F 46.8 °F 29.7 in SO 5.6 mph 13 mph 84% 0 in
03:39 51.4 °F 46.8 °F 29.7 in SO 5.4 mph 13 mph 84% 0 in
03:44 51.4 °F 46.8 °F 29.7 in SO 6 mph 13 mph 84% 0 in
03:49 51.4 °F 46.8 °F 29.7 in OSO 6.2 mph 9.2 mph 84% 0 in
03:54 51.6 °F 46.9 °F 29.7 in SO 5.5 mph 10 mph 84% 0 in
03:59 51.6 °F 46.9 °F 29.7 in SO 5.2 mph 10 mph 84% 0 in
04:04 51.6 °F 46.9 °F 29.7 in SO 4.8 mph 9.2 mph 84% 0 in
04:09 52 °F 47.3 °F 29.7 in OSO 4.7 mph 12.7 mph 84% 0 in
04:14 52.2 °F 47.1 °F 29.7 in OSO 5.2 mph 13 mph 83.3% 0 in
04:19 52.3 °F 46.9 °F 29.7 in Oeste 5.4 mph 17.8 mph 81.4% 0 in
04:24 53.1 °F 46.6 °F 29.7 in Oeste 7.8 mph 24.2 mph 79.1% 0 in
04:29 53.2 °F 46.6 °F 29.7 in Oeste 8.7 mph 24 mph 77.7% 0 in
04:34 53.4 °F 46.4 °F 29.7 in Oeste 10.5 mph 20.8 mph 77% 0 in
04:39 53.4 °F 46.2 °F 29.7 in Oeste 11.2 mph 26.8 mph 76.4% 0 in
04:44 53.8 °F 46.4 °F 29.7 in ONO 12.9 mph 27 mph 76% 0 in
04:49 53.8 °F 46.2 °F 29.7 in Oeste 13.5 mph 23 mph 75.3% 0 in
04:54 54 °F 46.2 °F 29.7 in Oeste 13.2 mph 25.3 mph 75% 0.02 in
04:59 54 °F 46 °F 29.6 in ONO 13 mph 29.9 mph 74.4% 0.02 in
05:04 54.1 °F 46 °F 29.6 in ONO 15.2 mph 30 mph 74% 0.02 in
05:09 54 °F 45.9 °F 29.6 in ONO 15.9 mph 24.2 mph 74% 0.02 in
05:14 54.1 °F 46 °F 29.6 in ONO 15 mph 24 mph 74% 0.02 in
05:19 54.1 °F 46 °F 29.6 in ONO 14.7 mph 29.1 mph 74% 0.02 in
05:24 54.1 °F 46 °F 29.6 in ONO 14.7 mph 29 mph 74% 0.02 in
05:29 54.1 °F 46 °F 29.6 in Oeste 14.7 mph 27 mph 74% 0.02 in
05:34 54.1 °F 46 °F 29.6 in ONO 15.6 mph 25.6 mph 74% 0.02 in
05:39 54.1 °F 46 °F 29.6 in Oeste 15.9 mph 26 mph 74% 0.02 in
05:44 54.1 °F 46 °F 29.6 in Oeste 14.3 mph 22 mph 74% 0.02 in
05:49 54.1 °F 46 °F 29.6 in ONO 13.7 mph 29.1 mph 74% 0.02 in
05:54 54.1 °F 46 °F 29.6 in Oeste 14.3 mph 29 mph 74% 0.02 in
05:59 54.1 °F 46.2 °F 29.6 in ONO 14.5 mph 27 mph 74.3% 0 in
06:04 54 °F 46.4 °F 29.6 in ONO 13.4 mph 25 mph 75.6% 0.01 in
06:09 53.6 °F 46.6 °F 29.6 in ONO 13 mph 24 mph 77.1% 0.02 in
06:14 53.2 °F 46.6 °F 29.6 in ONO 12.5 mph 21 mph 78% 0.02 in
06:19 53.2 °F 46.6 °F 29.6 in Oeste 12.3 mph 19.7 mph 78.4% 0.02 in
06:24 53.1 °F 46.6 °F 29.6 in ONO 12.3 mph 21.3 mph 78.1% 0.03 in
06:29 53.1 °F 46.8 °F 29.6 in ONO 12.3 mph 21.9 mph 78.9% 0.03 in
06:34 53.1 °F 46.8 °F 29.6 in ONO 13.2 mph 22 mph 79% 0.03 in
06:39 53.1 °F 46.6 °F 29.6 in ONO 13.5 mph 25.3 mph 78.6% 0.04 in
06:44 53.2 °F 46.6 °F 29.6 in Oeste 13.7 mph 25 mph 78% 0.04 in
06:49 53.2 °F 46.6 °F 29.6 in ONO 13.7 mph 26.5 mph 78% 0.04 in
06:54 53.4 °F 46.4 °F 29.6 in ONO 13.9 mph 26 mph 77.3% 0.05 in
06:59 53.6 °F 46.6 °F 29.6 in ONO 14 mph 24.2 mph 77% 0.05 in
07:04 53.8 °F 46.8 °F 29.6 in ONO 14 mph 25.3 mph 77% 0.05 in
07:09 53.8 °F 46.6 °F 29.6 in ONO 14 mph 25 mph 76.8% 0.04 in
07:14 54 °F 46.4 °F 29.6 in ONO 14.5 mph 29.9 mph 75.8% 0.03 in
07:19 54.1 °F 46.4 °F 29.6 in ONO 14.7 mph 30 mph 75% 0.03 in
07:24 54.1 °F 46.6 °F 29.6 in ONO 14.7 mph 24.2 mph 75.8% 0.03 in
07:29 54.1 °F 46.4 °F 29.6 in ONO 14.7 mph 24 mph 75.1% 0.02 in
07:34 54.3 °F 46.4 °F 29.6 in ONO 14.2 mph 24.2 mph 74.5% 0.02 in
07:39 54.3 °F 46.2 °F 29.6 in ONO 14 mph 24 mph 74% 0.01 in
07:44 54.7 °F 46.4 °F 29.6 in ONO 14 mph 22.3 mph 73.7% 0.01 in
07:49 54.7 °F 46.2 °F 29.6 in ONO 14 mph 22 mph 73% 0.01 in
07:54 54.7 °F 46.2 °F 29.6 in ONO 13.6 mph 20.8 mph 73% 0 in
07:59 54.7 °F 46.2 °F 29.6 in Oeste 13.5 mph 21.5 mph 73% 0 in
08:04 54.7 °F 46.2 °F 29.6 in ONO 11.9 mph 22 mph 73% 0 in
08:09 54.9 °F 46 °F 29.6 in ONO 11.4 mph 24.2 mph 72.1% 0 in
08:14 54.9 °F 46 °F 29.6 in Oeste 12.2 mph 24 mph 72% 0 in
08:19 54.9 °F 46 °F 29.6 in Oeste 12.5 mph 21 mph 72% 0 in
08:24 55 °F 45.9 °F 29.6 in Oeste 12.9 mph 23 mph 71.3% 0 in
08:29 55 °F 45.9 °F 29.6 in ONO 13 mph 23 mph 71% 0 in
08:34 55 °F 45.9 °F 29.6 in ONO 12.5 mph 20.7 mph 71% 0 in
08:39 55 °F 45.9 °F 29.6 in ONO 12.3 mph 21 mph 71% 0 in
08:44 55.2 °F 45.7 °F 29.6 in ONO 11.5 mph 21 mph 70.2% 0 in
08:49 55.2 °F 45.7 °F 29.6 in ONO 11.2 mph 20.1 mph 70% 0 in
08:54 55.4 °F 45.7 °F 29.6 in ONO 12 mph 26.5 mph 69.8% 0 in
08:59 55.6 °F 45.7 °F 29.6 in ONO 12.3 mph 26 mph 69% 0 in
09:04 55.8 °F 45.7 °F 29.6 in ONO 13.2 mph 25.3 mph 69% 0 in
09:09 55.8 °F 45.7 °F 29.6 in ONO 13.5 mph 20 mph 69% 0 in
09:14 55.8 °F 45.7 °F 29.6 in Oeste 11.4 mph 21.9 mph 69% 0 in
09:19 55.9 °F 45.5 °F 29.6 in Oeste 10.7 mph 25 mph 68% 0 in
09:24 55.9 °F 45.7 °F 29.6 in Oeste 11.2 mph 25 mph 68.5% 0 in
09:29 55.8 °F 45.7 °F 29.6 in ONO 11.4 mph 22.3 mph 68.6% 0 in
09:34 55.8 °F 45.7 °F 29.6 in ONO 11.4 mph 22 mph 69.1% 0 in
09:39 55.8 °F 46 °F 29.6 in ONO 11.4 mph 17 mph 70% 0 in
09:44 55.8 °F 45.9 °F 29.6 in ONO 8.9 mph 21.9 mph 69.4% 0 in
09:49 55.9 °F 45.7 °F 29.6 in Oeste 8.1 mph 22 mph 68.3% 0 in
09:54 55.9 °F 45.3 °F 29.6 in ONO 11.3 mph 24.2 mph 67.5% 0 in
09:59 56.1 °F 45.7 °F 29.6 in Oeste 12.5 mph 24 mph 68% 0 in
10:04 55.9 °F 45.5 °F 29.6 in Oeste 11.1 mph 19 mph 68.1% 0 in
10:09 55.8 °F 45.7 °F 29.7 in Oeste 10.7 mph 19 mph 68.8% 0 in
10:14 55.8 °F 45.7 °F 29.7 in ONO 10.7 mph 19.7 mph 68.7% 0 in
10:19 55.8 °F 45.7 °F 29.7 in ONO 10.7 mph 20 mph 68.8% 0 in
10:24 55.8 °F 45.7 °F 29.7 in ONO 11.1 mph 19.7 mph 69% 0 in
10:29 55.8 °F 45.7 °F 29.7 in ONO 11.2 mph 20 mph 69% 0 in
10:34 55.8 °F 45.7 °F 29.7 in Oeste 10.9 mph 17.5 mph 69% 0 in
10:39 55.8 °F 45.9 °F 29.7 in ONO 10.7 mph 18.5 mph 69.3% 0 in
10:44 55.6 °F 45.9 °F 29.7 in ONO 10.2 mph 19 mph 69.7% 0 in
10:49 55.6 °F 45.9 °F 29.7 in ONO 10 mph 18 mph 70% 0 in
10:54 55.4 °F 46 °F 29.7 in ONO 10 mph 19.6 mph 70.3% 0 in
10:59 55.2 °F 46 °F 29.7 in ONO 10 mph 20 mph 71.2% 0 in
11:04 55 °F 46.4 °F 29.7 in ONO 10.9 mph 20 mph 72.5% 0 in
11:09 54.9 °F 46.6 °F 29.7 in ONO 11.2 mph 20 mph 73.5% 0 in
11:14 54.9 °F 46.8 °F 29.7 in ONO 10.5 mph 16.3 mph 74.2% 0 in
11:19 54.7 °F 46.9 °F 29.7 in Oeste 10.2 mph 17.3 mph 75% 0 in
11:24 54.7 °F 46.9 °F 29.7 in ONO 10.6 mph 21.9 mph 75% 0 in
11:29 54.7 °F 46.9 °F 29.7 in Oeste 10.7 mph 22 mph 75% 0 in
11:34 54.7 °F 46.9 °F 29.7 in Oeste 12 mph 23 mph 75.2% 0 in
11:39 54.7 °F 47.3 °F 29.7 in ONO 12.5 mph 23.5 mph 76% 0 in
11:44 54.7 °F 47.5 °F 29.7 in ONO 13.2 mph 23 mph 76.7% 0 in
11:49 54.3 °F 47.5 °F 29.7 in ONO 13.5 mph 20 mph 77.7% 0.01 in
11:54 54.1 °F 47.8 °F 29.7 in Oeste 10.9 mph 20 mph 78.9% 0.01 in
11:59 54 °F 47.7 °F 29.7 in ONO 10 mph 19 mph 79.2% 0.01 in
12:04 54 °F 47.8 °F 29.7 in ONO 10.9 mph 19.2 mph 79.5% 0.01 in
12:09 54 °F 47.8 °F 29.7 in ONO 11.2 mph 20 mph 79.9% 0.01 in
12:14 54 °F 47.8 °F 29.7 in Oeste 10.9 mph 21.3 mph 80% 0.02 in
12:19 54 °F 47.8 °F 29.7 in Oeste 10.7 mph 22.3 mph 79.4% 0.02 in
12:24 54.1 °F 48 °F 29.7 in Oeste 12.4 mph 22 mph 79.4% 0.02 in
12:29 54.1 °F 47.8 °F 29.7 in Oeste 13 mph 19.6 mph 79.1% 0.02 in
12:34 54.3 °F 47.8 °F 29.7 in Oeste 11.8 mph 20 mph 79% 0.02 in
12:39 54.3 °F 47.8 °F 29.7 in Oeste 11.4 mph 16 mph 79% 0.02 in
12:44 54.3 °F 47.8 °F 29.7 in Oeste 8.7 mph 17.3 mph 78.6% 0.02 in
12:49 54.7 °F 47.8 °F 29.7 in Oeste 7.6 mph 20.8 mph 77.6% 0.01 in
12:54 54.9 °F 47.7 °F 29.7 in Oeste 9.3 mph 21 mph 76.6% 0.01 in
12:59 55 °F 47.7 °F 29.7 in Oeste 10 mph 18.5 mph 75.7% 0.01 in
13:04 55.2 °F 47.3 °F 29.7 in Oeste 10 mph 19 mph 74.7% 0.01 in
13:09 55.4 °F 47.7 °F 29.7 in Oeste 10 mph 18 mph 75% 0.01 in
13:14 55.4 °F 47.8 °F 29.7 in Oeste 8.1 mph 12 mph 75.6% 0 in
13:19 55.4 °F 47.8 °F 29.7 in Oeste 7.4 mph 11 mph 75.8% 0 in
13:24 55.6 °F 48 °F 29.7 in Oeste 6.3 mph 10 mph 76% 0 in
13:29 55.6 °F 48 °F 29.7 in Oeste 5.9 mph 14 mph 75.5% 0 in
13:34 55.6 °F 47.5 °F 29.7 in Oeste 6.3 mph 14 mph 74.3% 0 in
13:39 55.6 °F 47.5 °F 29.7 in Oeste 6.4 mph 15.9 mph 74% 0 in
13:44 55.6 °F 47.5 °F 29.7 in ONO 7.6 mph 16.1 mph 74% 0 in
13:49 55.6 °F 47.7 °F 29.7 in ONO 8.1 mph 16 mph 74.7% 0 in
13:54 55.2 °F 47.7 °F 29.7 in ONO 8.1 mph 16.3 mph 75.5% 0 in
13:59 55 °F 47.8 °F 29.7 in Oeste 8.1 mph 16 mph 76.5% 0.02 in
14:04 54.9 °F 47.8 °F 29.7 in Oeste 8.1 mph 14 mph 77.1% 0.02 in
14:09 54.9 °F 48 °F 29.7 in Oeste 8.1 mph 12 mph 78% 0.02 in
14:14 54.9 °F 48.2 °F 29.7 in Oeste 7.2 mph 12 mph 78% 0.02 in
14:19 55 °F 48.2 °F 29.7 in Oeste 6.9 mph 12 mph 77.9% 0.02 in
14:24 55 °F 48.2 °F 29.7 in Oeste 6.4 mph 12.7 mph 77.5% 0.02 in
14:29 55.2 °F 48 °F 29.7 in Oeste 6.2 mph 13 mph 77% 0.02 in
14:34 55.4 °F 48.4 °F 29.7 in ONO 6.3 mph 12 mph 77% 0.02 in
14:39 55.6 °F 48.2 °F 29.7 in ONO 6.4 mph 18.4 mph 76.4% 0.02 in
14:44 55.6 °F 48 °F 29.7 in Oeste 7.3 mph 18 mph 76% 0.02 in
14:49 55.6 °F 48 °F 29.7 in Oeste 7.6 mph 14 mph 76% 0.02 in
14:54 55.6 °F 48 °F 29.7 in Oeste 7.5 mph 17.3 mph 76% 0.02 in
14:59 55.6 °F 48 °F 29.7 in Oeste 7.4 mph 17 mph 76% 0.02 in
15:04 55.6 °F 48 °F 29.7 in Oeste 8.3 mph 15 mph 76% 0 in
15:09 55.6 °F 48.4 °F 29.7 in Oeste 8.5 mph 14 mph 76.7% 0 in
15:14 55.6 °F 48.4 °F 29.7 in Oeste 7.3 mph 13.8 mph 76.5% 0 in
15:19 55.6 °F 48.2 °F 29.7 in Oeste 6.9 mph 14 mph 76.3% 0 in
15:24 55.6 °F 48.4 °F 29.7 in Oeste 6.4 mph 12.7 mph 76.5% 0 in
15:29 55.8 °F 48.2 °F 29.7 in Oeste 6.2 mph 13 mph 76% 0 in
15:34 55.8 °F 48.4 °F 29.7 in Oeste 6.2 mph 13 mph 76% 0 in
15:39 55.9 °F 48.2 °F 29.7 in Oeste 6.2 mph 13 mph 75.4% 0 in
15:44 55.9 °F 48.2 °F 29.7 in Oeste 7.2 mph 13 mph 75% 0 in
15:49 56.1 °F 48.4 °F 29.7 in Oeste 7.6 mph 12 mph 75% 0 in
15:54 56.1 °F 48.2 °F 29.7 in Oeste 6.6 mph 12 mph 74.4% 0 in
15:59 56.3 °F 48 °F 29.7 in ONO 6.2 mph 12 mph 74% 0 in
16:04 56.3 °F 48.2 °F 29.7 in Oeste 6.3 mph 12 mph 74.2% 0 in
16:09 56.5 °F 48.4 °F 29.7 in Oeste 6.4 mph 11.8 mph 74.1% 0 in
16:14 56.5 °F 48.2 °F 29.7 in Oeste 6 mph 12.3 mph 73.7% 0 in
16:19 56.5 °F 48 °F 29.7 in Oeste 5.9 mph 13 mph 73% 0 in
16:24 56.7 °F 48 °F 29.7 in OSO 6.3 mph 13 mph 73% 0 in
16:29 56.7 °F 48 °F 29.7 in OSO 6.4 mph 10 mph 73% 0 in
16:34 56.7 °F 48.2 °F 29.7 in Oeste 4.7 mph 8.7 mph 73.2% 0 in
16:39 56.7 °F 47.8 °F 29.7 in OSO 4 mph 9.2 mph 72.1% 0 in
16:44 56.8 °F 47.8 °F 29.7 in OSO 4 mph 9 mph 72% 0 in
16:49 56.7 °F 47.7 °F 29.7 in OSO 4 mph 7 mph 72% 0 in
16:54 56.7 °F 47.5 °F 29.7 in OSO 4.2 mph 9.7 mph 71.2% 0 in
16:59 56.8 °F 47.1 °F 29.7 in OSO 4.3 mph 10 mph 70.1% 0 in
17:04 56.7 °F 46.8 °F 29.7 in OSO 5.2 mph 11.5 mph 69.2% 0 in
17:09 56.7 °F 46.6 °F 29.7 in OSO 5.4 mph 12 mph 69.2% 0 in
17:14 56.7 °F 46.8 °F 29.7 in Oeste 5.4 mph 11 mph 69.6% 0 in
17:19 56.5 °F 46.8 °F 29.7 in OSO 5.4 mph 8.1 mph 70% 0 in
17:24 56.3 °F 46.4 °F 29.7 in OSO 4.9 mph 10.4 mph 69.6% 0 in
17:29 56.1 °F 46 °F 29.7 in Oeste 4.7 mph 10.4 mph 69% 0 in
17:34 56.1 °F 46.2 °F 29.7 in Oeste 5.2 mph 9 mph 69% 0 in
17:39 56.1 °F 46 °F 29.7 in ONO 5.4 mph 8.1 mph 69% 0 in
17:44 56.1 °F 46.2 °F 29.7 in Oeste 4.4 mph 8 mph 69.4% 0 in
17:49 56.1 °F 46.6 °F 29.7 in Oeste 4 mph 5 mph 70% 0 in
17:54 56.1 °F 46.8 °F 29.7 in Oeste 2.5 mph 5 mph 70.8% 0 in
17:59 55.9 °F 46.8 °F 29.7 in Oeste 2 mph 3 mph 71% 0 in
18:04 55.8 °F 46.6 °F 29.7 in Oeste 0.5 mph   71% 0 in
18:09 55.8 °F 46.6 °F 29.7 in Calm   4 mph 71% 0 in
18:14 55.8 °F 46.6 °F 29.7 in OSO 1.1 mph 5 mph 71% 0 in
18:19 55.8 °F 46.6 °F 29.7 in SO 1.4 mph 5 mph 71% 0 in
18:24 55.8 °F 46.6 °F 29.7 in SSO 2.5 mph 5.9 mph 71% 0 in
18:29 55.8 °F 46.9 °F 29.7 in Sur 2.9 mph 6.9 mph 71.9% 0 in
18:34 55.8 °F 46.9 °F 29.7 in SSO 3.7 mph 7 mph 72% 0 in
18:39 55.8 °F 47.1 °F 29.7 in Sur 4 mph 7.4 mph 72.6% 0 in
18:44 55.6 °F 47.7 °F 29.7 in SSO 4.5 mph 7.6 mph 74.6% 0 in
18:49 55.2 °F 47.7 °F 29.7 in SSO 4.7 mph 8.1 mph 75.6% 0 in
18:54 55.2 °F 47.8 °F 29.7 in SSO 5.1 mph 8.5 mph 76% 0 in
18:59 55.2 °F 47.8 °F 29.7 in SO 5.2 mph 9.2 mph 76% 0 in
19:04 55.2 °F 47.8 °F 29.7 in SSO 5.3 mph 9 mph 76% 0 in
19:09 55.2 °F 47.8 °F 29.7 in SSO 5.4 mph 8.1 mph 76% 0 in
19:14 55.2 °F 47.8 °F 29.7 in SSO 5.3 mph 8 mph 76.3% 0 in
19:19 55 °F 48 °F 29.7 in SSO 5.2 mph 7 mph 77% 0 in
19:24 55 °F 48 °F 29.7 in SSO 4.3 mph 8.1 mph 77% 0 in
19:29 55 °F 48 °F 29.7 in SSO 4 mph 8 mph 77% 0 in
19:34 54.9 °F 47.8 °F 29.7 in SSO 4.5 mph 7 mph 77% 0 in
19:39 54.9 °F 47.8 °F 29.7 in SSO 4.7 mph 6.2 mph 77% 0 in
19:44 54.9 °F 48 °F 29.7 in Sur 4.2 mph 6 mph 77.5% 0 in
19:49 54.9 °F 48 °F 29.7 in Sur 4 mph 6.9 mph 78% 0 in
19:54 54.9 °F 48 °F 29.7 in Sur 4.2 mph 8.1 mph 78% 0 in
19:59 54.9 °F 48 °F 29.7 in SSO 4.3 mph 8.1 mph 78% 0 in
20:04 54.9 °F 47.8 °F 29.7 in SSO 4.6 mph 9.2 mph 77.3% 0 in
20:09 54.9 °F 47.8 °F 29.7 in SSO 4.7 mph 9 mph 77% 0 in
20:14 54.9 °F 47.8 °F 29.7 in Sur 5.2 mph 8 mph 77.4% 0 in
20:19 54.9 °F 48 °F 29.7 in Sur 5.4 mph 7 mph 77.5% 0 in
20:24 54.9 °F 48 °F 29.7 in SSO 4.9 mph 7 mph 77.4% 0 in
20:29 54.9 °F 47.8 °F 29.7 in Sur 4.7 mph 6.9 mph 77% 0 in
20:34 55 °F 48 °F 29.7 in Sur 3.9 mph 7 mph 76.9% 0 in
20:39 55 °F 47.7 °F 29.7 in SSO 3.6 mph 6.2 mph 76% 0 in
20:44 55.2 °F 47.8 °F 29.7 in SSO 3.1 mph 6 mph 76.2% 0 in
20:49 55 °F 48 °F 29.7 in SSO 2.9 mph 5.2 mph 77% 0 in
20:54 54.9 °F 48 °F 29.7 in Sur 3 mph 5.8 mph 77.4% 0 in
20:59 54.9 °F 48 °F 29.7 in Sur 3.1 mph 6.2 mph 78% 0 in
21:04 54.9 °F 48 °F 29.7 in Sur 3.5 mph 6 mph 78% 0 in
21:09 54.9 °F 48 °F 29.7 in SSO 3.6 mph 6 mph 78% 0 in
21:14 54.9 °F 48 °F 29.7 in SSO 3.6 mph 7.4 mph 78% 0 in
21:19 54.9 °F 48 °F 29.7 in SSO 3.6 mph 7 mph 78% 0 in
21:24 54.9 °F 48 °F 29.8 in SO 4.4 mph 7.4 mph 77.3% 0 in
21:29 55 °F 48 °F 29.8 in SO 4.7 mph 7 mph 77% 0 in
21:34 55 °F 47.7 °F 29.8 in SO 3.9 mph 7 mph 76% 0 in
21:39 55.2 °F 47.5 °F 29.8 in SSO 3.6 mph 8.1 mph 75.4% 0 in
21:44 55.2 °F 47.5 °F 29.8 in Sur 3.6 mph 8 mph 75% 0 in
21:49 55.2 °F 47.5 °F 29.8 in Sur 3.6 mph 7.4 mph 75% 0 in
21:54 55.2 °F 47.5 °F 29.8 in Sur 4.1 mph 9.2 mph 75% 0 in
21:59 55.2 °F 47.5 °F 29.8 in Sur 4.3 mph 9.2 mph 75% 0 in
22:04 55.2 °F 47.5 °F 29.8 in Sur 4.6 mph 7 mph 75% 0 in
22:09 55.2 °F 47.5 °F 29.8 in SO 4.7 mph 7 mph 75% 0 in
22:14 55.2 °F 47.5 °F 29.8 in SSO 4.2 mph 7.4 mph 75% 0 in
22:19 55.2 °F 47.5 °F 29.8 in SSO 4 mph 8.1 mph 75% 0 in
22:24 55.4 °F 47.5 °F 29.8 in SSO 4.5 mph 8.5 mph 74.9% 0 in
22:29 55.6 °F 47.3 °F 29.8 in SSO 4.7 mph 10.7 mph 74% 0 in
22:34 55.6 °F 47.5 °F 29.8 in SSO 5.6 mph 11 mph 74% 0 in
22:39 55.6 °F 47.5 °F 29.8 in SSO 5.9 mph 10.4 mph 74% 0 in
22:44 55.6 °F 47.5 °F 29.8 in SSO 6.2 mph 10 mph 74.1% 0 in
22:49 55.6 °F 47.8 °F 29.8 in SSO 6.2 mph 9 mph 75% 0 in
22:54 55.2 °F 47.7 °F 29.8 in SSO 5.6 mph 8.1 mph 75.3% 0 in
22:59 55.2 °F 47.8 °F 29.8 in SSO 5.4 mph 8 mph 76% 0 in
23:04 55 °F 47.8 °F 29.8 in SSO 4.8 mph 6.9 mph 76.4% 0 in
23:09 55 °F 47.8 °F 29.8 in Sur 4.7 mph 7 mph 76.8% 0 in
23:14 55 °F 48 °F 29.8 in Sur 3.9 mph 6.4 mph 77% 0 in
23:19 54.9 °F 47.8 °F 29.8 in Sur 3.6 mph 7 mph 77% 0 in
23:24 54.9 °F 47.8 °F 29.8 in SSO 4.1 mph 7.4 mph 77% 0 in
23:29 54.9 °F 47.8 °F 29.8 in SSO 4.3 mph 7 mph 77% 0 in
23:34 54.9 °F 47.8 °F 29.8 in SSO 3.8 mph 6 mph 77% 0 in
23:39 54.9 °F 47.5 °F 29.8 in SSO 3.6 mph 4 mph 76.2% 0 in
23:44 54.9 °F 47.5 °F 29.8 in SSO 0.9 mph 1 mph 76% 0 in
23:49 54.9 °F 47.5 °F 29.8 in Calm     76% 0 in
23:54 54.9 °F 47.7 °F 29.8 in Calm     76.8% 0 in
23:59 54.9 °F 47.8 °F 29.8 in Calm     77% 0 in
Murcia-Puente Tocinos, España
Compliments of Weather Underground - 3 mb

La estación de MeteoMurcia.com, publica sus datos en los siguientes proyectos:

Weather Underground PWS IMURCIAP2 Meteoclimatic www.awekas.at

W3Counter
Web Analytics